Terminal Aerodrome Forecast
Issued by NWS Cleveland, OH

Home | Current Version | Previous Version | Graphics & Text | Print | Product List | Glossary On
Versions: 1 2 3 4 5 6 7 8 9 10 11 12 13 14 15 16 17 18 19 20 21 22 23 24 25 26 27 28 29 30 31 32
692
FTUS41 KCLE 150139 AAB
TAFCLE
TAF AMD
KCLE 150139Z 1502/1606 18006KT 5SM BR SCT007 OVC015
      TEMPO 1503/1505 BKN007
     FM150500 20010KT 5SM BR OVC007
     FM151400 22012G20KT P6SM OVC015
     FM152100 22010KT 3SM -RA OVC010
     FM160400 26008KT 1 1/2SM -RA OVC003=

USA.gov is the U.S. government's official web portal to all federal, state and local government web resources and services.